sensor_id;sensor_type;location;lat;lon;timestamp;P1;durP1;ratioP1;P2;durP2;ratioP2
4460;SDS011;2243;48.812;9.232;2024-01-06T00:00:21;12.87;;;8.63;;
4460;SDS011;2243;48.812;9.232;2024-01-06T00:02:53;10.73;;;9.07;;
4460;SDS011;2243;48.812;9.232;2024-01-06T00:05:24;20.93;;;8.17;;
4460;SDS011;2243;48.812;9.232;2024-01-06T00:07:55;14.00;;;8.83;;
4460;SDS011;2243;48.812;9.232;2024-01-06T00:10:26;12.53;;;8.83;;
4460;SDS011;2243;48.812;9.232;2024-01-06T00:12:57;12.40;;;7.73;;
4460;SDS011;2243;48.812;9.232;2024-01-06T00:15:28;10.67;;;7.40;;
4460;SDS011;2243;48.812;9.232;2024-01-06T00:17:59;13.17;;;8.40;;
4460;SDS011;2243;48.812;9.232;2024-01-06T00:20:30;10.00;;;7.60;;
4460;SDS011;2243;48.812;9.232;2024-01-06T00:23:01;11.93;;;8.10;;
4460;SDS011;2243;48.812;9.232;2024-01-06T00:25:32;12.53;;;8.10;;
4460;SDS011;2243;48.812;9.232;2024-01-06T00:28:03;9.00;;;7.67;;
4460;SDS011;2243;48.812;9.232;2024-01-06T00:30:34;7.93;;;7.00;;
4460;SDS011;2243;48.812;9.232;2024-01-06T00:33:06;9.10;;;7.07;;
4460;SDS011;2243;48.812;9.232;2024-01-06T00:35:37;8.57;;;6.83;;
4460;SDS011;2243;48.812;9.232;2024-01-06T00:38:08;8.87;;;6.40;;
4460;SDS011;2243;48.812;9.232;2024-01-06T00:40:39;9.77;;;6.53;;
4460;SDS011;2243;48.812;9.232;2024-01-06T00:43:10;6.93;;;6.00;;
4460;SDS011;2243;48.812;9.232;2024-01-06T00:45:41;8.30;;;5.60;;
4460;SDS011;2243;48.812;9.232;2024-01-06T00:48:12;6.60;;;5.73;;
4460;SDS011;2243;48.812;9.232;2024-01-06T00:50:43;10.50;;;7.17;;
4460;SDS011;2243;48.812;9.232;2024-01-06T00:53:14;46.00;;;30.87;;
4460;SDS011;2243;48.812;9.232;2024-01-06T00:55:45;24.30;;;14.87;;
4460;SDS011;2243;48.812;9.232;2024-01-06T00:58:16;12.03;;;10.80;;
4460;SDS011;2243;48.812;9.232;2024-01-06T01:00:47;12.43;;;9.70;;
4460;SDS011;2243;48.812;9.232;2024-01-06T01:03:18;8.33;;;6.67;;
4460;SDS011;2243;48.812;9.232;2024-01-06T01:05:49;7.90;;;5.27;;
4460;SDS011;2243;48.812;9.232;2024-01-06T01:08:20;4.80;;;4.30;;
4460;SDS011;2243;48.812;9.232;2024-01-06T01:10:51;7.00;;;4.60;;
4460;SDS011;2243;48.812;9.232;2024-01-06T01:13:23;7.97;;;4.80;;
4460;SDS011;2243;48.812;9.232;2024-01-06T01:15:54;4.53;;;4.13;;
4460;SDS011;2243;48.812;9.232;2024-01-06T01:18:25;7.70;;;4.90;;
4460;SDS011;2243;48.812;9.232;2024-01-06T01:20:56;4.33;;;4.03;;
4460;SDS011;2243;48.812;9.232;2024-01-06T01:23:27;4.67;;;4.27;;
4460;SDS011;2243;48.812;9.232;2024-01-06T01:25:58;6.17;;;3.93;;
4460;SDS011;2243;48.812;9.232;2024-01-06T01:28:29;8.63;;;3.97;;
4460;SDS011;2243;48.812;9.232;2024-01-06T01:31:00;4.70;;;3.97;;
4460;SDS011;2243;48.812;9.232;2024-01-06T01:33:32;4.00;;;3.63;;
4460;SDS011;2243;48.812;9.232;2024-01-06T01:36:03;3.83;;;3.50;;
4460;SDS011;2243;48.812;9.232;2024-01-06T01:38:34;5.10;;;3.70;;
4460;SDS011;2243;48.812;9.232;2024-01-06T01:41:05;4.07;;;3.63;;
4460;SDS011;2243;48.812;9.232;2024-01-06T01:43:36;3.17;;;2.80;;
4460;SDS011;2243;48.812;9.232;2024-01-06T01:46:06;3.77;;;3.47;;
4460;SDS011;2243;48.812;9.232;2024-01-06T01:48:37;4.07;;;3.07;;
4460;SDS011;2243;48.812;9.232;2024-01-06T01:51:09;7.83;;;3.20;;
4460;SDS011;2243;48.812;9.232;2024-01-06T01:53:40;5.93;;;3.20;;
4460;SDS011;2243;48.812;9.232;2024-01-06T01:56:12;4.50;;;2.43;;
4460;SDS011;2243;48.812;9.232;2024-01-06T01:58:44;2.83;;;2.63;;
4460;SDS011;2243;48.812;9.232;2024-01-06T02:01:15;5.70;;;2.27;;
4460;SDS011;2243;48.812;9.232;2024-01-06T02:03:47;7.03;;;2.50;;
4460;SDS011;2243;48.812;9.232;2024-01-06T02:06:18;2.93;;;2.27;;
4460;SDS011;2243;48.812;9.232;2024-01-06T02:08:49;2.23;;;2.07;;
4460;SDS011;2243;48.812;9.232;2024-01-06T02:11:20;1.80;;;1.70;;
4460;SDS011;2243;48.812;9.232;2024-01-06T02:13:51;6.17;;;2.37;;
4460;SDS011;2243;48.812;9.232;2024-01-06T02:16:22;3.00;;;2.73;;
4460;SDS011;2243;48.812;9.232;2024-01-06T02:18:53;2.27;;;2.07;;
4460;SDS011;2243;48.812;9.232;2024-01-06T02:21:24;3.37;;;2.17;;
4460;SDS011;2243;48.812;9.232;2024-01-06T02:23:59;2.47;;;2.13;;
4460;SDS011;2243;48.812;9.232;2024-01-06T02:26:30;3.00;;;2.40;;
4460;SDS011;2243;48.812;9.232;2024-01-06T02:29:01;1.90;;;1.70;;
4460;SDS011;2243;48.812;9.232;2024-01-06T02:31:32;4.83;;;1.90;;
4460;SDS011;2243;48.812;9.232;2024-01-06T02:34:03;2.23;;;1.50;;
4460;SDS011;2243;48.812;9.232;2024-01-06T02:36:34;6.33;;;2.27;;
4460;SDS011;2243;48.812;9.232;2024-01-06T02:39:05;2.70;;;1.37;;
4460;SDS011;2243;48.812;9.232;2024-01-06T02:41:36;1.13;;;1.07;;
4460;SDS011;2243;48.812;9.232;2024-01-06T02:44:07;1.73;;;1.47;;
4460;SDS011;2243;48.812;9.232;2024-01-06T02:46:42;1.70;;;1.60;;
4460;SDS011;2243;48.812;9.232;2024-01-06T02:49:13;3.30;;;1.57;;
4460;SDS011;2243;48.812;9.232;2024-01-06T02:51:44;2.20;;;1.60;;
4460;SDS011;2243;48.812;9.232;2024-01-06T02:54:15;4.30;;;1.63;;
4460;SDS011;2243;48.812;9.232;2024-01-06T02:56:46;3.60;;;1.20;;
4460;SDS011;2243;48.812;9.232;2024-01-06T02:59:17;7.23;;;1.80;;
4460;SDS011;2243;48.812;9.232;2024-01-06T03:01:48;1.30;;;1.20;;
4460;SDS011;2243;48.812;9.232;2024-01-06T03:04:19;1.30;;;1.30;;
4460;SDS011;2243;48.812;9.232;2024-01-06T03:06:50;1.73;;;1.63;;
4460;SDS011;2243;48.812;9.232;2024-01-06T03:09:24;2.00;;;1.77;;
4460;SDS011;2243;48.812;9.232;2024-01-06T03:11:55;3.33;;;1.70;;
4460;SDS011;2243;48.812;9.232;2024-01-06T03:14:26;2.87;;;1.40;;
4460;SDS011;2243;48.812;9.232;2024-01-06T03:16:57;1.93;;;1.60;;
4460;SDS011;2243;48.812;9.232;2024-01-06T03:19:29;6.33;;;1.77;;
4460;SDS011;2243;48.812;9.232;2024-01-06T03:22:01;5.07;;;1.53;;
4460;SDS011;2243;48.812;9.232;2024-01-06T03:24:32;1.60;;;1.50;;
4460;SDS011;2243;48.812;9.232;2024-01-06T03:27:03;4.10;;;1.80;;
4460;SDS011;2243;48.812;9.232;2024-01-06T03:29:34;2.60;;;1.40;;
4460;SDS011;2243;48.812;9.232;2024-01-06T03:32:05;2.43;;;1.60;;
4460;SDS011;2243;48.812;9.232;2024-01-06T03:34:36;2.03;;;1.30;;
4460;SDS011;2243;48.812;9.232;2024-01-06T03:37:07;1.60;;;1.50;;
4460;SDS011;2243;48.812;9.232;2024-01-06T03:39:38;1.53;;;1.43;;
4460;SDS011;2243;48.812;9.232;2024-01-06T03:42:09;2.67;;;1.70;;
4460;SDS011;2243;48.812;9.232;2024-01-06T03:44:40;5.67;;;1.33;;
4460;SDS011;2243;48.812;9.232;2024-01-06T03:47:11;3.00;;;1.53;;
4460;SDS011;2243;48.812;9.232;2024-01-06T03:49:42;2.40;;;1.37;;
4460;SDS011;2243;48.812;9.232;2024-01-06T03:52:13;3.93;;;1.37;;
4460;SDS011;2243;48.812;9.232;2024-01-06T03:54:44;1.70;;;1.60;;
4460;SDS011;2243;48.812;9.232;2024-01-06T03:57:15;2.53;;;1.90;;
4460;SDS011;2243;48.812;9.232;2024-01-06T03:59:46;3.53;;;1.10;;
4460;SDS011;2243;48.812;9.232;2024-01-06T04:02:17;1.70;;;1.60;;
4460;SDS011;2243;48.812;9.232;2024-01-06T04:04:48;2.03;;;1.23;;
4460;SDS011;2243;48.812;9.232;2024-01-06T04:07:19;2.40;;;1.47;;
4460;SDS011;2243;48.812;9.232;2024-01-06T04:09:50;1.77;;;1.40;;
4460;SDS011;2243;48.812;9.232;2024-01-06T04:12:21;2.30;;;1.40;;
4460;SDS011;2243;48.812;9.232;2024-01-06T04:14:52;5.60;;;1.77;;
4460;SDS011;2243;48.812;9.232;2024-01-06T04:17:23;2.57;;;1.57;;
4460;SDS011;2243;48.812;9.232;2024-01-06T04:19:56;3.80;;;1.77;;
4460;SDS011;2243;48.812;9.232;2024-01-06T04:22:27;2.70;;;1.50;;
4460;SDS011;2243;48.812;9.232;2024-01-06T04:24:58;2.83;;;1.70;;
4460;SDS011;2243;48.812;9.232;2024-01-06T04:27:29;3.40;;;2.10;;
4460;SDS011;2243;48.812;9.232;2024-01-06T04:30:01;1.87;;;1.30;;
4460;SDS011;2243;48.812;9.232;2024-01-06T04:32:33;2.40;;;1.40;;
4460;SDS011;2243;48.812;9.232;2024-01-06T04:35:04;1.80;;;1.67;;
4460;SDS011;2243;48.812;9.232;2024-01-06T04:37:35;2.20;;;1.57;;
4460;SDS011;2243;48.812;9.232;2024-01-06T04:40:06;3.07;;;1.80;;
4460;SDS011;2243;48.812;9.232;2024-01-06T04:42:38;2.90;;;1.40;;
4460;SDS011;2243;48.812;9.232;2024-01-06T04:45:09;2.50;;;1.30;;
4460;SDS011;2243;48.812;9.232;2024-01-06T04:47:40;2.00;;;1.50;;
4460;SDS011;2243;48.812;9.232;2024-01-06T04:50:11;3.13;;;2.07;;
4460;SDS011;2243;48.812;9.232;2024-01-06T04:52:42;1.70;;;1.40;;
4460;SDS011;2243;48.812;9.232;2024-01-06T04:55:14;2.13;;;1.70;;
4460;SDS011;2243;48.812;9.232;2024-01-06T04:57:45;10.00;;;2.17;;
4460;SDS011;2243;48.812;9.232;2024-01-06T05:00:16;1.63;;;1.53;;
4460;SDS011;2243;48.812;9.232;2024-01-06T05:02:47;5.93;;;1.70;;
4460;SDS011;2243;48.812;9.232;2024-01-06T05:05:18;2.70;;;1.60;;
4460;SDS011;2243;48.812;9.232;2024-01-06T05:07:49;1.63;;;1.23;;
4460;SDS011;2243;48.812;9.232;2024-01-06T05:10:20;1.27;;;1.27;;
4460;SDS011;2243;48.812;9.232;2024-01-06T05:12:51;2.80;;;1.27;;
4460;SDS011;2243;48.812;9.232;2024-01-06T05:15:22;1.43;;;1.33;;
4460;SDS011;2243;48.812;9.232;2024-01-06T05:17:53;1.70;;;1.60;;
4460;SDS011;2243;48.812;9.232;2024-01-06T05:20:25;1.53;;;1.30;;
4460;SDS011;2243;48.812;9.232;2024-01-06T05:22:56;2.40;;;1.60;;
4460;SDS011;2243;48.812;9.232;2024-01-06T05:25:27;1.63;;;1.40;;
4460;SDS011;2243;48.812;9.232;2024-01-06T05:27:57;2.10;;;1.73;;
4460;SDS011;2243;48.812;9.232;2024-01-06T05:30:29;1.37;;;1.07;;
4460;SDS011;2243;48.812;9.232;2024-01-06T05:33:00;1.60;;;1.50;;
4460;SDS011;2243;48.812;9.232;2024-01-06T05:35:32;1.50;;;1.40;;
4460;SDS011;2243;48.812;9.232;2024-01-06T05:38:03;4.03;;;1.73;;
4460;SDS011;2243;48.812;9.232;2024-01-06T05:40:34;3.40;;;1.77;;
4460;SDS011;2243;48.812;9.232;2024-01-06T05:43:05;2.10;;;1.33;;
4460;SDS011;2243;48.812;9.232;2024-01-06T05:45:36;3.17;;;1.50;;
4460;SDS011;2243;48.812;9.232;2024-01-06T05:48:10;1.70;;;1.60;;
4460;SDS011;2243;48.812;9.232;2024-01-06T05:50:42;2.03;;;1.50;;
4460;SDS011;2243;48.812;9.232;2024-01-06T05:53:13;1.67;;;1.20;;
4460;SDS011;2243;48.812;9.232;2024-01-06T05:55:44;2.50;;;1.47;;
4460;SDS011;2243;48.812;9.232;2024-01-06T05:58:15;4.90;;;1.53;;
4460;SDS011;2243;48.812;9.232;2024-01-06T06:00:46;2.47;;;1.50;;
4460;SDS011;2243;48.812;9.232;2024-01-06T06:03:17;1.60;;;1.50;;
4460;SDS011;2243;48.812;9.232;2024-01-06T06:05:48;1.33;;;1.23;;
4460;SDS011;2243;48.812;9.232;2024-01-06T06:08:19;1.90;;;1.77;;
4460;SDS011;2243;48.812;9.232;2024-01-06T06:10:50;1.97;;;1.50;;
4460;SDS011;2243;48.812;9.232;2024-01-06T06:13:31;2.60;;;1.63;;
4460;SDS011;2243;48.812;9.232;2024-01-06T06:16:03;3.50;;;1.87;;
4460;SDS011;2243;48.812;9.232;2024-01-06T06:18:35;2.40;;;1.67;;
4460;SDS011;2243;48.812;9.232;2024-01-06T06:21:06;2.13;;;1.93;;
4460;SDS011;2243;48.812;9.232;2024-01-06T06:23:38;4.40;;;2.50;;
4460;SDS011;2243;48.812;9.232;2024-01-06T06:26:09;5.13;;;2.40;;
4460;SDS011;2243;48.812;9.232;2024-01-06T06:28:42;2.13;;;2.03;;
4460;SDS011;2243;48.812;9.232;2024-01-06T06:31:13;1.80;;;1.60;;
4460;SDS011;2243;48.812;9.232;2024-01-06T06:33:44;5.43;;;2.50;;
4460;SDS011;2243;48.812;9.232;2024-01-06T06:36:15;1.67;;;1.67;;
4460;SDS011;2243;48.812;9.232;2024-01-06T06:38:47;2.93;;;2.10;;
4460;SDS011;2243;48.812;9.232;2024-01-06T06:41:18;3.53;;;1.87;;
4460;SDS011;2243;48.812;9.232;2024-01-06T06:43:50;10.23;;;2.57;;
4460;SDS011;2243;48.812;9.232;2024-01-06T06:46:21;1.93;;;1.80;;
4460;SDS011;2243;48.812;9.232;2024-01-06T06:48:51;1.80;;;1.70;;
4460;SDS011;2243;48.812;9.232;2024-01-06T06:51:22;2.13;;;2.03;;
4460;SDS011;2243;48.812;9.232;2024-01-06T06:53:57;3.40;;;2.23;;
4460;SDS011;2243;48.812;9.232;2024-01-06T06:56:29;3.87;;;1.80;;
4460;SDS011;2243;48.812;9.232;2024-01-06T06:58:59;3.87;;;2.00;;
4460;SDS011;2243;48.812;9.232;2024-01-06T07:01:32;3.23;;;1.90;;
4460;SDS011;2243;48.812;9.232;2024-01-06T07:04:04;2.87;;;1.87;;
4460;SDS011;2243;48.812;9.232;2024-01-06T07:06:35;1.60;;;1.50;;
4460;SDS011;2243;48.812;9.232;2024-01-06T07:09:06;3.03;;;1.90;;
4460;SDS011;2243;48.812;9.232;2024-01-06T07:11:37;3.90;;;2.27;;
4460;SDS011;2243;48.812;9.232;2024-01-06T07:14:08;4.40;;;1.90;;
4460;SDS011;2243;48.812;9.232;2024-01-06T07:16:39;2.97;;;2.10;;
4460;SDS011;2243;48.812;9.232;2024-01-06T07:19:10;2.10;;;1.90;;
4460;SDS011;2243;48.812;9.232;2024-01-06T07:21:42;2.73;;;1.97;;
4460;SDS011;2243;48.812;9.232;2024-01-06T07:24:13;2.70;;;2.33;;
4460;SDS011;2243;48.812;9.232;2024-01-06T07:26:44;1.87;;;1.70;;
4460;SDS011;2243;48.812;9.232;2024-01-06T07:29:15;2.10;;;2.00;;
4460;SDS011;2243;48.812;9.232;2024-01-06T07:31:46;3.47;;;1.90;;
4460;SDS011;2243;48.812;9.232;2024-01-06T07:34:17;2.00;;;1.90;;
4460;SDS011;2243;48.812;9.232;2024-01-06T07:36:49;1.83;;;1.40;;
4460;SDS011;2243;48.812;9.232;2024-01-06T07:39:20;9.73;;;2.60;;
4460;SDS011;2243;48.812;9.232;2024-01-06T07:41:50;1.70;;;1.70;;
4460;SDS011;2243;48.812;9.232;2024-01-06T07:44:22;2.70;;;1.73;;
4460;SDS011;2243;48.812;9.232;2024-01-06T07:46:55;4.83;;;1.77;;
4460;SDS011;2243;48.812;9.232;2024-01-06T07:49:26;2.00;;;1.87;;
4460;SDS011;2243;48.812;9.232;2024-01-06T07:51:57;1.50;;;1.50;;
4460;SDS011;2243;48.812;9.232;2024-01-06T07:54:29;1.60;;;1.50;;
4460;SDS011;2243;48.812;9.232;2024-01-06T07:57:02;1.47;;;1.37;;
4460;SDS011;2243;48.812;9.232;2024-01-06T07:59:33;2.10;;;1.90;;
4460;SDS011;2243;48.812;9.232;2024-01-06T08:02:04;1.83;;;1.47;;
4460;SDS011;2243;48.812;9.232;2024-01-06T08:04:36;1.73;;;1.50;;
4460;SDS011;2243;48.812;9.232;2024-01-06T08:07:07;2.10;;;2.00;;
4460;SDS011;2243;48.812;9.232;2024-01-06T08:09:38;1.97;;;1.60;;
4460;SDS011;2243;48.812;9.232;2024-01-06T08:12:11;1.80;;;1.70;;
4460;SDS011;2243;48.812;9.232;2024-01-06T08:14:42;1.73;;;1.63;;
4460;SDS011;2243;48.812;9.232;2024-01-06T08:17:14;3.27;;;1.80;;
4460;SDS011;2243;48.812;9.232;2024-01-06T08:19:48;1.80;;;1.60;;
4460;SDS011;2243;48.812;9.232;2024-01-06T08:22:20;4.73;;;2.03;;
4460;SDS011;2243;48.812;9.232;2024-01-06T08:24:51;1.30;;;1.30;;
4460;SDS011;2243;48.812;9.232;2024-01-06T08:27:22;1.20;;;1.20;;
4460;SDS011;2243;48.812;9.232;2024-01-06T08:29:54;2.13;;;1.60;;
4460;SDS011;2243;48.812;9.232;2024-01-06T08:32:25;1.53;;;1.43;;
4460;SDS011;2243;48.812;9.232;2024-01-06T08:34:56;1.30;;;1.20;;
4460;SDS011;2243;48.812;9.232;2024-01-06T08:37:27;1.73;;;1.63;;
4460;SDS011;2243;48.812;9.232;2024-01-06T08:39:58;1.83;;;1.60;;
4460;SDS011;2243;48.812;9.232;2024-01-06T08:42:29;1.57;;;1.50;;
4460;SDS011;2243;48.812;9.232;2024-01-06T08:45:00;1.50;;;1.40;;
4460;SDS011;2243;48.812;9.232;2024-01-06T08:47:31;2.43;;;2.33;;
4460;SDS011;2243;48.812;9.232;2024-01-06T08:50:03;3.07;;;1.70;;
4460;SDS011;2243;48.812;9.232;2024-01-06T08:52:35;2.03;;;1.47;;
4460;SDS011;2243;48.812;9.232;2024-01-06T08:55:06;1.70;;;1.70;;
4460;SDS011;2243;48.812;9.232;2024-01-06T08:57:37;1.70;;;1.60;;
4460;SDS011;2243;48.812;9.232;2024-01-06T09:00:08;1.83;;;1.73;;
4460;SDS011;2243;48.812;9.232;2024-01-06T09:02:41;1.47;;;1.30;;
4460;SDS011;2243;48.812;9.232;2024-01-06T09:05:12;1.30;;;1.30;;
4460;SDS011;2243;48.812;9.232;2024-01-06T09:07:43;1.20;;;1.20;;
4460;SDS011;2243;48.812;9.232;2024-01-06T09:10:24;1.77;;;1.60;;
4460;SDS011;2243;48.812;9.232;2024-01-06T09:12:55;1.73;;;1.30;;
4460;SDS011;2243;48.812;9.232;2024-01-06T09:15:26;1.20;;;1.20;;
4460;SDS011;2243;48.812;9.232;2024-01-06T09:17:57;1.77;;;1.67;;
4460;SDS011;2243;48.812;9.232;2024-01-06T09:20:28;1.50;;;1.40;;
4460;SDS011;2243;48.812;9.232;2024-01-06T09:22:59;1.93;;;1.80;;
4460;SDS011;2243;48.812;9.232;2024-01-06T09:25:30;2.03;;;1.93;;
4460;SDS011;2243;48.812;9.232;2024-01-06T09:28:01;3.27;;;2.23;;
4460;SDS011;2243;48.812;9.232;2024-01-06T09:30:33;3.93;;;1.90;;
4460;SDS011;2243;48.812;9.232;2024-01-06T09:33:04;2.37;;;2.27;;
4460;SDS011;2243;48.812;9.232;2024-01-06T09:35:35;2.20;;;2.10;;
4460;SDS011;2243;48.812;9.232;2024-01-06T09:38:06;2.90;;;2.70;;
4460;SDS011;2243;48.812;9.232;2024-01-06T09:40:41;2.07;;;1.97;;
4460;SDS011;2243;48.812;9.232;2024-01-06T09:43:14;2.10;;;2.00;;
4460;SDS011;2243;48.812;9.232;2024-01-06T09:45:47;2.87;;;1.97;;
4460;SDS011;2243;48.812;9.232;2024-01-06T09:48:28;3.17;;;2.97;;
4460;SDS011;2243;48.812;9.232;2024-01-06T09:51:04;2.10;;;2.00;;
4460;SDS011;2243;48.812;9.232;2024-01-06T09:53:38;1.80;;;1.70;;
4460;SDS011;2243;48.812;9.232;2024-01-06T09:56:18;1.90;;;1.80;;
4460;SDS011;2243;48.812;9.232;2024-01-06T09:58:49;5.27;;;2.03;;
4460;SDS011;2243;48.812;9.232;2024-01-06T10:01:21;2.33;;;1.77;;
4460;SDS011;2243;48.812;9.232;2024-01-06T10:03:52;1.83;;;1.83;;
4460;SDS011;2243;48.812;9.232;2024-01-06T10:06:23;1.50;;;1.40;;
4460;SDS011;2243;48.812;9.232;2024-01-06T10:08:55;2.30;;;2.20;;
4460;SDS011;2243;48.812;9.232;2024-01-06T10:11:26;2.00;;;2.00;;
4460;SDS011;2243;48.812;9.232;2024-01-06T10:13:57;3.43;;;3.17;;
4460;SDS011;2243;48.812;9.232;2024-01-06T10:16:29;2.10;;;2.00;;
4460;SDS011;2243;48.812;9.232;2024-01-06T10:18:59;2.17;;;1.77;;
4460;SDS011;2243;48.812;9.232;2024-01-06T10:21:32;1.67;;;1.67;;
4460;SDS011;2243;48.812;9.232;2024-01-06T10:24:03;2.17;;;1.60;;
4460;SDS011;2243;48.812;9.232;2024-01-06T10:26:34;2.00;;;1.90;;
4460;SDS011;2243;48.812;9.232;2024-01-06T10:29:05;1.63;;;1.53;;
4460;SDS011;2243;48.812;9.232;2024-01-06T10:31:36;1.60;;;1.60;;
4460;SDS011;2243;48.812;9.232;2024-01-06T10:34:07;2.03;;;1.70;;
4460;SDS011;2243;48.812;9.232;2024-01-06T10:36:38;1.60;;;1.50;;
4460;SDS011;2243;48.812;9.232;2024-01-06T10:39:09;1.70;;;1.60;;
4460;SDS011;2243;48.812;9.232;2024-01-06T10:41:41;1.73;;;1.60;;
4460;SDS011;2243;48.812;9.232;2024-01-06T10:44:14;2.07;;;1.97;;
4460;SDS011;2243;48.812;9.232;2024-01-06T10:46:46;1.90;;;1.80;;
4460;SDS011;2243;48.812;9.232;2024-01-06T10:49:19;1.77;;;1.67;;
4460;SDS011;2243;48.812;9.232;2024-01-06T10:51:52;2.30;;;2.10;;
4460;SDS011;2243;48.812;9.232;2024-01-06T10:54:24;1.27;;;1.27;;
4460;SDS011;2243;48.812;9.232;2024-01-06T10:56:57;1.80;;;1.70;;
4460;SDS011;2243;48.812;9.232;2024-01-06T10:59:29;3.37;;;1.67;;
4460;SDS011;2243;48.812;9.232;2024-01-06T11:02:03;2.10;;;2.00;;
4460;SDS011;2243;48.812;9.232;2024-01-06T11:04:36;3.07;;;2.13;;
4460;SDS011;2243;48.812;9.232;2024-01-06T11:07:08;2.60;;;1.80;;
4460;SDS011;2243;48.812;9.232;2024-01-06T11:09:41;1.67;;;1.60;;
4460;SDS011;2243;48.812;9.232;2024-01-06T11:12:30;1.90;;;1.80;;
4460;SDS011;2243;48.812;9.232;2024-01-06T11:15:02;1.73;;;1.70;;
4460;SDS011;2243;48.812;9.232;2024-01-06T11:17:53;2.30;;;2.20;;
4460;SDS011;2243;48.812;9.232;2024-01-06T11:20:28;2.20;;;2.00;;
4460;SDS011;2243;48.812;9.232;2024-01-06T11:23:19;2.10;;;2.00;;
4460;SDS011;2243;48.812;9.232;2024-01-06T11:25:52;2.40;;;2.20;;
4460;SDS011;2243;48.812;9.232;2024-01-06T11:28:23;2.00;;;1.90;;
4460;SDS011;2243;48.812;9.232;2024-01-06T11:31:07;2.20;;;2.10;;
4460;SDS011;2243;48.812;9.232;2024-01-06T11:33:42;2.03;;;1.93;;
4460;SDS011;2243;48.812;9.232;2024-01-06T11:36:15;1.97;;;1.87;;
4460;SDS011;2243;48.812;9.232;2024-01-06T11:38:46;2.23;;;2.13;;
4460;SDS011;2243;48.812;9.232;2024-01-06T11:44:21;2.00;;;1.90;;
4460;SDS011;2243;48.812;9.232;2024-01-06T11:46:52;2.97;;;2.23;;
4460;SDS011;2243;48.812;9.232;2024-01-06T11:49:27;3.10;;;2.90;;
4460;SDS011;2243;48.812;9.232;2024-01-06T11:52:01;3.37;;;2.70;;
4460;SDS011;2243;48.812;9.232;2024-01-06T11:54:32;2.13;;;2.03;;
4460;SDS011;2243;48.812;9.232;2024-01-06T11:57:05;3.10;;;3.00;;
4460;SDS011;2243;48.812;9.232;2024-01-06T11:59:36;2.70;;;2.60;;
4460;SDS011;2243;48.812;9.232;2024-01-06T12:02:10;2.80;;;2.70;;
4460;SDS011;2243;48.812;9.232;2024-01-06T12:04:45;3.47;;;3.10;;
4460;SDS011;2243;48.812;9.232;2024-01-06T12:07:22;2.83;;;2.63;;
4460;SDS011;2243;48.812;9.232;2024-01-06T12:10:01;2.97;;;2.83;;
4460;SDS011;2243;48.812;9.232;2024-01-06T12:12:33;3.00;;;2.90;;
4460;SDS011;2243;48.812;9.232;2024-01-06T12:15:05;3.77;;;3.47;;
4460;SDS011;2243;48.812;9.232;2024-01-06T12:17:36;3.40;;;3.17;;
4460;SDS011;2243;48.812;9.232;2024-01-06T12:20:10;4.70;;;3.97;;
4460;SDS011;2243;48.812;9.232;2024-01-06T12:22:42;3.40;;;3.10;;
4460;SDS011;2243;48.812;9.232;2024-01-06T12:25:14;3.73;;;3.53;;
4460;SDS011;2243;48.812;9.232;2024-01-06T12:27:45;2.70;;;2.60;;
4460;SDS011;2243;48.812;9.232;2024-01-06T12:30:18;4.13;;;3.83;;
4460;SDS011;2243;48.812;9.232;2024-01-06T12:32:51;3.33;;;3.13;;
4460;SDS011;2243;48.812;9.232;2024-01-06T12:35:23;3.50;;;3.30;;
4460;SDS011;2243;48.812;9.232;2024-01-06T12:37:54;4.03;;;3.70;;
4460;SDS011;2243;48.812;9.232;2024-01-06T12:40:26;3.67;;;3.47;;
4460;SDS011;2243;48.812;9.232;2024-01-06T12:42:57;4.10;;;3.80;;
4460;SDS011;2243;48.812;9.232;2024-01-06T12:45:28;3.20;;;3.00;;
4460;SDS011;2243;48.812;9.232;2024-01-06T12:47:59;4.33;;;3.53;;
4460;SDS011;2243;48.812;9.232;2024-01-06T12:50:30;4.57;;;4.17;;
4460;SDS011;2243;48.812;9.232;2024-01-06T12:53:01;4.07;;;3.77;;
4460;SDS011;2243;48.812;9.232;2024-01-06T12:55:32;3.50;;;3.30;;
4460;SDS011;2243;48.812;9.232;2024-01-06T12:58:03;3.87;;;3.57;;
4460;SDS011;2243;48.812;9.232;2024-01-06T13:00:34;4.53;;;4.13;;
4460;SDS011;2243;48.812;9.232;2024-01-06T13:03:06;4.13;;;3.70;;
4460;SDS011;2243;48.812;9.232;2024-01-06T13:05:38;4.17;;;3.87;;
4460;SDS011;2243;48.812;9.232;2024-01-06T13:08:09;9.60;;;4.60;;
4460;SDS011;2243;48.812;9.232;2024-01-06T13:10:41;5.70;;;5.20;;
4460;SDS011;2243;48.812;9.232;2024-01-06T13:13:12;6.53;;;4.50;;
4460;SDS011;2243;48.812;9.232;2024-01-06T13:15:43;4.60;;;4.30;;
4460;SDS011;2243;48.812;9.232;2024-01-06T13:18:14;6.43;;;5.10;;
4460;SDS011;2243;48.812;9.232;2024-01-06T13:20:47;4.80;;;4.40;;
4460;SDS011;2243;48.812;9.232;2024-01-06T13:23:18;5.50;;;4.60;;
4460;SDS011;2243;48.812;9.232;2024-01-06T13:25:49;4.80;;;4.40;;
4460;SDS011;2243;48.812;9.232;2024-01-06T13:28:20;5.70;;;4.43;;
4460;SDS011;2243;48.812;9.232;2024-01-06T13:30:54;6.17;;;4.90;;
4460;SDS011;2243;48.812;9.232;2024-01-06T13:33:25;8.30;;;4.50;;
4460;SDS011;2243;48.812;9.232;2024-01-06T13:35:57;5.27;;;4.77;;
4460;SDS011;2243;48.812;9.232;2024-01-06T13:38:28;4.63;;;4.33;;
4460;SDS011;2243;48.812;9.232;2024-01-06T13:40:59;5.07;;;4.77;;
4460;SDS011;2243;48.812;9.232;2024-01-06T13:43:30;5.50;;;4.97;;
4460;SDS011;2243;48.812;9.232;2024-01-06T13:46:02;7.50;;;5.60;;
4460;SDS011;2243;48.812;9.232;2024-01-06T13:48:33;5.73;;;5.23;;
4460;SDS011;2243;48.812;9.232;2024-01-06T13:51:05;6.23;;;5.63;;
4460;SDS011;2243;48.812;9.232;2024-01-06T13:53:36;8.00;;;6.17;;
4460;SDS011;2243;48.812;9.232;2024-01-06T13:56:07;7.20;;;5.60;;
4460;SDS011;2243;48.812;9.232;2024-01-06T13:58:38;6.17;;;5.50;;
4460;SDS011;2243;48.812;9.232;2024-01-06T14:01:09;6.67;;;5.50;;
4460;SDS011;2243;48.812;9.232;2024-01-06T14:03:41;6.20;;;5.60;;
4460;SDS011;2243;48.812;9.232;2024-01-06T14:06:12;6.27;;;5.67;;
4460;SDS011;2243;48.812;9.232;2024-01-06T14:08:44;6.87;;;5.67;;
4460;SDS011;2243;48.812;9.232;2024-01-06T14:11:15;6.00;;;5.50;;
4460;SDS011;2243;48.812;9.232;2024-01-06T14:13:46;5.77;;;5.17;;
4460;SDS011;2243;48.812;9.232;2024-01-06T14:16:19;7.80;;;5.97;;
4460;SDS011;2243;48.812;9.232;2024-01-06T14:18:51;9.10;;;6.90;;
4460;SDS011;2243;48.812;9.232;2024-01-06T14:21:22;8.77;;;6.30;;
4460;SDS011;2243;48.812;9.232;2024-01-06T14:23:53;7.20;;;6.00;;
4460;SDS011;2243;48.812;9.232;2024-01-06T14:26:24;8.20;;;6.70;;
4460;SDS011;2243;48.812;9.232;2024-01-06T14:28:55;8.63;;;7.33;;
4460;SDS011;2243;48.812;9.232;2024-01-06T14:31:31;7.13;;;6.47;;
4460;SDS011;2243;48.812;9.232;2024-01-06T14:34:10;7.23;;;6.53;;
4460;SDS011;2243;48.812;9.232;2024-01-06T14:36:42;8.13;;;6.67;;
4460;SDS011;2243;48.812;9.232;2024-01-06T14:39:20;7.43;;;6.73;;
4460;SDS011;2243;48.812;9.232;2024-01-06T14:41:54;7.53;;;6.50;;
4460;SDS011;2243;48.812;9.232;2024-01-06T14:44:25;7.27;;;6.13;;
4460;SDS011;2243;48.812;9.232;2024-01-06T14:46:58;6.70;;;6.03;;
4460;SDS011;2243;48.812;9.232;2024-01-06T14:49:29;6.50;;;5.97;;
4460;SDS011;2243;48.812;9.232;2024-01-06T14:52:00;9.17;;;5.87;;
4460;SDS011;2243;48.812;9.232;2024-01-06T14:54:32;8.80;;;6.50;;
4460;SDS011;2243;48.812;9.232;2024-01-06T14:57:05;5.53;;;5.03;;
4460;SDS011;2243;48.812;9.232;2024-01-06T14:59:36;7.30;;;6.60;;
4460;SDS011;2243;48.812;9.232;2024-01-06T15:02:07;10.13;;;6.93;;
4460;SDS011;2243;48.812;9.232;2024-01-06T15:04:38;8.10;;;6.43;;
4460;SDS011;2243;48.812;9.232;2024-01-06T15:07:09;7.83;;;6.63;;
4460;SDS011;2243;48.812;9.232;2024-01-06T15:09:41;6.93;;;6.20;;
4460;SDS011;2243;48.812;9.232;2024-01-06T15:12:17;7.17;;;6.00;;
4460;SDS011;2243;48.812;9.232;2024-01-06T15:14:49;6.63;;;6.03;;
4460;SDS011;2243;48.812;9.232;2024-01-06T15:17:19;6.33;;;5.80;;
4460;SDS011;2243;48.812;9.232;2024-01-06T15:19:51;7.43;;;6.70;;
4460;SDS011;2243;48.812;9.232;2024-01-06T15:22:24;10.27;;;8.57;;
4460;SDS011;2243;48.812;9.232;2024-01-06T15:24:55;10.00;;;7.97;;
4460;SDS011;2243;48.812;9.232;2024-01-06T15:27:28;9.23;;;7.40;;
4460;SDS011;2243;48.812;9.232;2024-01-06T15:30:01;7.33;;;6.63;;
4460;SDS011;2243;48.812;9.232;2024-01-06T15:32:37;11.77;;;7.57;;
4460;SDS011;2243;48.812;9.232;2024-01-06T15:35:08;12.50;;;8.63;;
4460;SDS011;2243;48.812;9.232;2024-01-06T15:37:42;9.10;;;8.03;;
4460;SDS011;2243;48.812;9.232;2024-01-06T15:40:17;10.13;;;8.33;;
4460;SDS011;2243;48.812;9.232;2024-01-06T15:42:48;14.00;;;7.37;;
4460;SDS011;2243;48.812;9.232;2024-01-06T15:45:19;8.73;;;7.23;;